CYQA

Muskoka Airport

Muskoka, , Canada
METAR CYQA 201048Z AUTO 35008KT 320V020 6SM -SN OVC050 M20/M24 A2985 RMK ICG INTMT SLP137
Observed Flight Rules
Jan-20 @ 10:48 UTC (17 minutes ago) Visual Flight Rules
Wind Visibility Clouds Conditions
350° at 8 knots 6 miles
  • Overcast at 5,000' AGL
  • Light Snow
Temperatures Readings
Current -20°C / -4°F
Dewpoint -24°C / -11°F
Humidity 71%
Altimeter 29.85" Hg
Pressure 1013.7 hPa
Elevation 282
METAR CYQA 201048Z AUTO 35008KT 320V020 6SM -SN OVC050 M20/M24 A2985 RMK ICG INTMT SLP137
Observed Flight Rules
Jan-20 @ 10:48 UTC
(17 minutes ago)
VFR
Wind Visibility
350° at 8 knots 6 miles
Clouds
  • Overcast at 5,000' AGL
Conditions
  • Light Snow
Temperature Dewpoint
-20°C / -4°F -24°C / -11°F
Humidity Altimeter Pressure
71% 29.85" Hg 1013.7 hPa